LGKO/KGS METAR and TAF weather

Enter ICAO airport designator
Station Type Date Time Source
LGKO METAR 2020/08/06 00:50 UTC NOAA

LGKO 060050Z 31010KT CAVOK 23/22 Q1007


Station Type Date Time Source
LGKO Decoded METAR 2020/08/06 00:50 UTC NOAA

Kos Airport , Greece (LGKO) 36-47N 027-04E
Aug 05, 2020 - 08:50 PM EDT / 2020.08.06 0050 UTC
Wind: from the NW (310 degrees) at 12 MPH (10 KT):0
Visibility: greater than 7 mile(s):0
Temperature: 73 F (23 C)
Dew Point: 71 F (22 C)
Relative Humidity: 94%
Pressure (altimeter): 29.74 in. Hg (1007 hPa)
ob: LGKO 060050Z 31010KT CAVOK 23/22 Q1007
cycle: 1

Station Type Date Time Source
LGKO TAF 2020/08/05 18:12 UTC NOAA

TAF LGKO 051700Z 0518/0618 31014KT 9999 FEW020

Example: see airport list